Time;durP1;ratioP1;P1;durP2;ratioP2;P2;SDS_P1;SDS_P2;PMS_P1;PMS_P2;Temp;Humidity;BMP_temperature;BMP_pressure;BME280_temperature;BME280_humidity;BME280_pressure;Samples;Min_cycle;Max_cycle;Signal;HPM_P1;HPM_P2
2022/06/29 00:02:18;;;;;;;9.63;2.80;;;16.10;99.90;;;;;;4930755;28;213881;-70
2022/06/29 00:04:45;;;;;;;10.52;2.70;;;16.10;99.90;;;;;;4936878;28;270310;-70
2022/06/29 00:07:12;;;;;;;8.98;2.85;;;16.10;99.90;;;;;;4961724;28;105153;-69
2022/06/29 00:09:38;;;;;;;9.57;2.80;;;16.00;99.90;;;;;;4950742;28;254430;-69
2022/06/29 00:12:05;;;;;;;8.23;2.65;;;16.00;99.90;;;;;;4946423;28;206474;-71
2022/06/29 00:14:31;;;;;;;9.57;2.72;;;16.00;99.90;;;;;;4950111;28;259124;-70
2022/06/29 00:16:58;;;;;;;10.13;2.72;;;16.00;99.90;;;;;;4949024;28;208497;-70
2022/06/29 00:19:24;;;;;;;9.65;3.03;;;16.00;99.90;;;;;;4951633;28;275317;-70
2022/06/29 00:21:50;;;;;;;9.70;2.90;;;15.90;99.90;;;;;;4955779;28;173602;-70
2022/06/29 00:24:17;;;;;;;9.37;2.67;;;15.90;99.90;;;;;;4957709;28;269090;-70
2022/06/29 00:26:43;;;;;;;9.38;2.92;;;15.90;99.90;;;;;;4933196;28;211012;-70
2022/06/29 00:29:09;;;;;;;9.35;3.22;;;15.80;99.90;;;;;;4946322;28;251298;-69
2022/06/29 00:31:35;;;;;;;9.13;2.67;;;15.80;99.90;;;;;;4934983;28;213890;-70
2022/06/29 00:34:01;;;;;;;9.80;2.97;;;15.70;99.90;;;;;;4969655;28;20059;-71
2022/06/29 00:36:27;;;;;;;11.27;3.10;;;15.80;99.90;;;;;;4927363;28;263833;-70
2022/06/29 00:38:53;;;;;;;10.93;3.17;;;15.70;99.90;;;;;;4979119;28;20062;-70
2022/06/29 00:41:20;;;;;;;8.48;3.03;;;15.70;99.90;;;;;;4932854;28;272895;-70
2022/06/29 00:43:46;;;;;;;9.93;3.05;;;15.70;99.90;;;;;;4985583;28;20043;-69
2022/06/29 00:46:12;;;;;;;7.70;2.60;;;15.70;99.90;;;;;;4906118;28;222670;-69
2022/06/29 00:48:38;;;;;;;9.02;2.97;;;15.60;99.90;;;;;;4968200;28;20051;-70
2022/06/29 00:51:07;;;;;;;8.93;3.03;;;15.60;99.90;;;;;;4924348;28;256492;-70
2022/06/29 00:53:40;;;;;;;8.65;3.17;;;15.60;99.90;;;;;;4988394;28;20046;-70
2022/06/29 00:56:09;;;;;;;10.10;3.20;;;15.60;99.90;;;;;;4910437;28;206245;-70
2022/06/29 00:58:35;;;;;;;10.40;3.47;;;15.60;99.90;;;;;;4969864;28;20083;-70
2022/06/29 01:01:05;;;;;;;11.35;3.33;;;15.60;99.90;;;;;;4904339;28;208479;-70
2022/06/29 01:03:32;;;;;;;12.13;3.50;;;15.60;99.90;;;;;;4978791;28;20088;-70
2022/06/29 01:06:00;;;;;;;13.00;2.80;;;15.60;99.90;;;;;;4903636;28;271719;-70
2022/06/29 01:08:27;;;;;;;10.98;3.05;;;15.60;99.90;;;;;;4960006;28;20488;-70
2022/06/29 01:10:53;;;;;;;8.90;3.33;;;15.70;99.90;;;;;;4918224;28;276709;-70
2022/06/29 01:13:19;;;;;;;11.60;3.80;;;15.70;99.90;;;;;;4960900;28;20066;-70
2022/06/29 01:15:45;;;;;;;11.38;3.28;;;15.70;99.90;;;;;;4921141;28;205448;-70
2022/06/29 01:18:11;;;;;;;10.80;3.58;;;15.80;99.90;;;;;;4964192;28;20059;-71
2022/06/29 01:20:38;;;;;;;12.73;3.40;;;15.90;99.90;;;;;;4911272;28;251968;-70
2022/06/29 01:23:04;;;;;;;11.88;3.47;;;15.90;99.90;;;;;;4980773;28;20062;-70
2022/06/29 01:25:30;;;;;;;10.25;3.90;;;15.90;99.90;;;;;;4917630;28;268919;-69
2022/06/29 01:27:56;;;;;;;9.98;3.60;;;15.90;99.90;;;;;;4985743;28;20126;-70
2022/06/29 01:30:22;;;;;;;12.25;3.60;;;16.00;99.90;;;;;;4903412;28;269663;-71
2022/06/29 01:32:48;;;;;;;9.80;3.83;;;16.00;99.90;;;;;;4977673;28;20053;-70
2022/06/29 01:35:16;;;;;;;9.18;3.55;;;16.00;99.90;;;;;;4959167;28;211913;-70
2022/06/29 01:37:42;;;;;;;9.18;3.35;;;16.00;99.90;;;;;;4931036;28;117117;-70
2022/06/29 01:40:10;;;;;;;8.38;3.38;;;16.00;99.90;;;;;;4957157;28;255668;-70
2022/06/29 01:42:36;;;;;;;9.77;3.55;;;16.00;99.90;;;;;;4945766;28;207854;-70
2022/06/29 01:45:03;;;;;;;9.18;3.55;;;16.00;99.90;;;;;;4956811;28;257279;-69
2022/06/29 01:47:29;;;;;;;9.75;3.80;;;16.00;99.90;;;;;;4955013;28;174355;-69
2022/06/29 01:49:55;;;;;;;10.68;3.95;;;16.00;99.90;;;;;;4948558;28;264009;-69
2022/06/29 01:52:21;;;;;;;9.45;3.38;;;16.00;99.90;;;;;;4933622;28;206548;-70
2022/06/29 01:54:48;;;;;;;12.13;3.90;;;16.00;99.90;;;;;;4948575;28;260602;-70
2022/06/29 01:57:14;;;;;;;10.32;3.90;;;16.10;99.90;;;;;;4936060;28;206758;-70
2022/06/29 01:59:40;;;;;;;11.48;3.85;;;16.10;99.90;;;;;;4951661;28;122561;-69
2022/06/29 02:02:07;;;;;;;10.25;3.63;;;16.10;99.90;;;;;;4936829;28;203005;-69
2022/06/29 02:04:34;;;;;;;8.43;3.53;;;16.00;99.90;;;;;;4938879;28;267236;-69
2022/06/29 02:07:00;;;;;;;9.27;3.80;;;16.10;99.90;;;;;;4955811;28;165992;-69
2022/06/29 02:09:26;;;;;;;8.60;3.67;;;16.10;99.90;;;;;;4950246;28;254172;-69
2022/06/29 02:11:53;;;;;;;10.80;3.72;;;16.00;99.90;;;;;;4928028;28;214134;-69
2022/06/29 02:14:19;;;;;;;9.43;3.90;;;16.00;99.90;;;;;;4945682;28;265160;-68
2022/06/29 02:16:45;;;;;;;12.10;4.40;;;16.00;99.90;;;;;;4926399;28;204797;-70
2022/06/29 02:19:11;;;;;;;8.77;3.67;;;16.00;99.90;;;;;;4955979;28;254647;-69
2022/06/29 02:21:37;;;;;;;11.07;3.60;;;16.00;99.90;;;;;;4948092;28;209882;-69
2022/06/29 02:24:04;;;;;;;11.45;4.00;;;16.00;99.90;;;;;;4977151;28;20046;-69
2022/06/29 02:26:30;;;;;;;11.77;4.00;;;16.00;99.90;;;;;;4937586;28;207012;-70
2022/06/29 02:28:57;;;;;;;12.43;3.95;;;16.00;99.90;;;;;;4975247;28;20066;-70
2022/06/29 02:36:53;;;;;;;10.60;4.53;;;15.90;99.90;;;;;;4935356;28;209630;-69
2022/06/29 02:39:19;;;;;;;11.18;4.00;;;15.90;99.90;;;;;;4950137;28;260537;-69
2022/06/29 02:41:45;;;;;;;9.95;3.88;;;15.80;99.90;;;;;;4957567;28;205547;-70
2022/06/29 02:44:12;;;;;;;11.30;4.47;;;15.80;99.90;;;;;;4949349;28;275244;-69
2022/06/29 02:46:38;;;;;;;10.10;4.40;;;15.80;99.90;;;;;;4937615;28;210443;-69
2022/06/29 02:49:04;;;;;;;9.18;3.95;;;15.70;99.90;;;;;;4965517;28;20061;-70
2022/06/29 02:51:30;;;;;;;9.57;4.00;;;15.70;99.90;;;;;;4926791;28;209474;-70
2022/06/29 02:53:56;;;;;;;9.05;4.15;;;15.70;99.90;;;;;;4960920;28;20051;-70
2022/06/29 02:56:22;;;;;;;10.05;4.63;;;15.70;99.90;;;;;;4922943;28;271327;-70
2022/06/29 02:58:49;;;;;;;13.13;3.75;;;15.70;99.90;;;;;;4971812;28;20059;-69
2022/06/29 03:01:15;;;;;;;9.50;3.97;;;15.70;99.90;;;;;;4927071;28;255383;-70
2022/06/29 03:03:41;;;;;;;10.02;4.13;;;15.70;99.90;;;;;;4982690;28;20059;-70
2022/06/29 03:06:07;;;;;;;11.27;4.47;;;15.60;99.90;;;;;;4908574;28;255210;-69
2022/06/29 03:08:33;;;;;;;10.55;4.45;;;15.60;99.90;;;;;;4977116;28;20051;-69
2022/06/29 03:10:59;;;;;;;9.88;3.92;;;15.60;99.90;;;;;;4918680;28;254875;-69
2022/06/29 03:13:25;;;;;;;9.15;3.78;;;15.60;99.90;;;;;;4979097;28;20061;-69
2022/06/29 03:15:51;;;;;;;13.82;3.80;;;15.60;99.90;;;;;;4908755;28;253594;-70
2022/06/29 03:18:17;;;;;;;9.00;3.70;;;15.60;99.90;;;;;;4996463;28;20480;-69
2022/06/29 03:20:43;;;;;;;9.27;4.10;;;15.60;99.90;;;;;;4921920;28;268059;-70
2022/06/29 03:23:10;;;;;;;11.23;4.13;;;15.60;99.90;;;;;;4976662;28;20536;-70
2022/06/29 03:25:36;;;;;;;10.43;3.88;;;15.50;99.90;;;;;;4912832;28;252473;-70
2022/06/29 03:28:02;;;;;;;10.65;4.15;;;15.50;99.90;;;;;;4968943;28;20509;-70
2022/06/29 03:30:28;;;;;;;11.38;4.00;;;15.50;99.90;;;;;;4908332;28;252003;-70
2022/06/29 03:32:54;;;;;;;8.85;4.15;;;15.50;99.90;;;;;;4989047;28;20079;-70
2022/06/29 03:35:21;;;;;;;8.65;4.32;;;15.50;99.90;;;;;;4909715;28;209372;-70
2022/06/29 03:37:47;;;;;;;10.32;3.90;;;15.50;99.90;;;;;;4966691;28;20376;-70
2022/06/29 03:40:13;;;;;;;8.70;4.10;;;15.50;99.90;;;;;;4967281;28;29080;-69
2022/06/29 03:42:39;;;;;;;11.10;3.70;;;15.50;99.90;;;;;;4958313;28;185901;-70
2022/06/29 03:45:06;;;;;;;8.80;3.97;;;15.50;99.90;;;;;;4954974;28;271164;-69
2022/06/29 03:47:32;;;;;;;10.32;3.80;;;15.40;99.90;;;;;;4930866;28;206276;-70
2022/06/29 03:49:58;;;;;;;8.88;3.92;;;15.40;99.90;;;;;;4945641;28;261013;-69
2022/06/29 03:52:24;;;;;;;8.52;4.07;;;15.40;99.90;;;;;;4930252;28;210465;-70
2022/06/29 03:54:50;;;;;;;9.02;4.53;;;15.40;99.90;;;;;;4958255;28;256563;-69
2022/06/29 03:57:16;;;;;;;10.05;4.22;;;15.40;99.90;;;;;;4935515;28;209427;-69
2022/06/29 03:59:43;;;;;;;10.85;3.70;;;15.40;99.90;;;;;;4971242;28;256040;-69
2022/06/29 04:02:09;;;;;;;11.57;4.38;;;15.40;99.90;;;;;;4955832;28;209264;-68
2022/06/29 04:04:35;;;;;;;8.95;4.45;;;15.40;99.90;;;;;;4945880;28;271576;-69
2022/06/29 04:07:01;;;;;;;9.10;4.43;;;15.40;99.90;;;;;;4955805;28;187754;-70
2022/06/29 04:09:27;;;;;;;11.70;5.43;;;15.40;99.90;;;;;;4944749;28;258210;-69
2022/06/29 04:11:54;;;;;;;9.68;4.18;;;15.50;99.90;;;;;;4911226;28;207187;-69
2022/06/29 04:14:23;;;;;;;8.75;4.35;;;15.50;99.90;;;;;;4943993;28;254089;-69
2022/06/29 04:16:51;;;;;;;12.48;5.35;;;15.60;99.90;;;;;;4947260;28;207148;-69
2022/06/29 04:19:17;;;;;;;9.55;4.50;;;15.60;99.90;;;;;;4953143;28;249270;-69
2022/06/29 04:21:43;;;;;;;11.82;4.90;;;15.70;99.90;;;;;;4934091;28;207544;-69
2022/06/29 04:24:10;;;;;;;9.73;4.85;;;15.80;99.90;;;;;;4941733;28;257932;-69
2022/06/29 04:26:36;;;;;;;9.68;4.80;;;15.80;99.90;;;;;;4951882;28;206429;-69
2022/06/29 04:29:02;;;;;;;9.18;4.07;;;15.90;99.90;;;;;;4968666;28;20058;-70
2022/06/29 04:31:29;;;;;;;11.60;4.90;;;15.90;99.90;;;;;;4912681;28;240806;-69
2022/06/29 04:33:55;;;;;;;11.00;4.78;;;16.00;99.90;;;;;;4970414;28;20531;-70
2022/06/29 04:36:21;;;;;;;10.07;4.75;;;16.00;99.90;;;;;;4914556;28;207351;-68
2022/06/29 04:38:48;;;;;;;9.98;4.43;;;16.10;99.90;;;;;;4970230;28;20046;-70
2022/06/29 04:41:15;;;;;;;12.82;4.75;;;16.10;99.90;;;;;;4917169;28;230427;-69
2022/06/29 04:43:42;;;;;;;11.27;4.63;;;16.20;99.90;;;;;;4973079;28;20055;-70
2022/06/29 04:46:20;;;;;;;9.88;4.80;;;16.30;99.90;;;;;;4933857;28;206303;-69
2022/06/29 04:48:47;;;;;;;11.27;4.93;;;16.40;99.90;;;;;;4966192;28;20055;-69
2022/06/29 04:51:15;;;;;;;12.07;4.93;;;16.40;99.90;;;;;;4917262;28;271349;-68
2022/06/29 04:53:44;;;;;;;9.70;4.63;;;16.50;99.90;;;;;;4955663;28;20062;-68
2022/06/29 04:56:10;;;;;;;9.38;4.63;;;16.50;99.90;;;;;;4903866;28;260103;-69
2022/06/29 04:58:36;;;;;;;9.85;4.53;;;16.60;99.90;;;;;;4953762;28;20062;-69
2022/06/29 05:01:03;;;;;;;9.60;4.32;;;16.60;99.90;;;;;;4918408;28;263646;-68
2022/06/29 05:03:29;;;;;;;9.30;4.18;;;16.70;99.90;;;;;;4964131;28;20050;-69
2022/06/29 05:05:55;;;;;;;11.85;4.50;;;16.70;99.90;;;;;;4903065;28;269445;-68
2022/06/29 05:08:21;;;;;;;9.60;4.05;;;16.70;99.90;;;;;;4978240;28;20083;-68
2022/06/29 05:10:47;;;;;;;9.18;4.10;;;16.70;99.90;;;;;;4932390;28;206032;-69
2022/06/29 05:13:14;;;;;;;8.82;3.97;;;16.70;99.90;;;;;;4970647;28;20453;-69
2022/06/29 05:15:40;;;;;;;10.90;4.22;;;16.70;99.90;;;;;;4905221;28;256069;-69
2022/06/29 05:18:06;;;;;;;10.32;4.45;;;16.70;99.90;;;;;;4973999;28;20051;-69
2022/06/29 05:20:33;;;;;;;10.43;4.55;;;16.60;99.90;;;;;;4913890;28;273753;-69
2022/06/29 05:22:59;;;;;;;9.85;4.00;;;16.60;99.90;;;;;;4989852;28;20165;-69
2022/06/29 05:25:25;;;;;;;9.20;4.35;;;16.60;99.90;;;;;;4908321;28;265186;-68
2022/06/29 05:27:52;;;;;;;8.45;4.20;;;16.60;99.90;;;;;;4973227;28;20051;-69
2022/06/29 05:30:18;;;;;;;11.27;4.47;;;16.70;99.90;;;;;;4940868;28;219144;-68
2022/06/29 05:32:44;;;;;;;9.15;4.13;;;16.70;99.90;;;;;;4961064;28;206881;-70
2022/06/29 05:35:10;;;;;;;11.43;4.43;;;16.80;99.90;;;;;;4950051;28;254086;-69
2022/06/29 05:37:37;;;;;;;9.02;4.38;;;16.90;99.90;;;;;;4939137;28;210087;-69
2022/06/29 05:40:03;;;;;;;8.57;4.20;;;17.00;99.90;;;;;;4948205;28;262025;-69
2022/06/29 05:42:29;;;;;;;11.68;4.40;;;17.10;99.90;;;;;;4930390;28;207092;-69
2022/06/29 05:44:55;;;;;;;10.68;4.28;;;17.20;99.90;;;;;;4950228;28;274431;-69
2022/06/29 05:47:22;;;;;;;10.65;4.22;;;17.30;99.90;;;;;;4949695;28;212016;-69
2022/06/29 05:49:48;;;;;;;10.30;3.60;;;17.40;99.90;;;;;;4943008;28;258403;-68
2022/06/29 05:52:14;;;;;;;9.70;3.97;;;17.50;99.90;;;;;;4927000;28;206164;-70
2022/06/29 05:54:40;;;;;;;12.45;3.80;;;17.70;99.90;;;;;;4945486;28;253515;-70
2022/06/29 05:57:06;;;;;;;10.02;3.50;;;17.90;99.90;;;;;;4932266;28;210251;-69
2022/06/29 05:59:33;;;;;;;7.50;3.25;;;18.10;99.90;;;;;;4947590;28;250595;-71
2022/06/29 06:01:59;;;;;;;13.73;3.30;;;18.30;99.90;;;;;;4931031;28;206734;-70
2022/06/29 06:04:25;;;;;;;7.50;3.00;;;18.60;99.90;;;;;;4938299;28;271644;-70
2022/06/29 06:06:52;;;;;;;8.85;3.20;;;18.80;99.90;;;;;;4947803;28;207493;-71
2022/06/29 06:09:22;;;;;;;8.98;3.15;;;19.10;99.90;;;;;;4946460;28;263627;-71
2022/06/29 06:11:48;;;;;;;10.68;2.95;;;19.30;99.90;;;;;;4950960;28;202082;-71
2022/06/29 06:14:14;;;;;;;7.88;2.80;;;19.50;99.90;;;;;;4955674;28;253421;-71
2022/06/29 06:16:40;;;;;;;7.53;2.85;;;19.70;99.90;;;;;;4946220;28;206966;-71
2022/06/29 06:19:06;;;;;;;8.80;3.17;;;19.90;99.90;;;;;;4951809;28;258211;-70
2022/06/29 06:21:34;;;;;;;16.00;2.78;;;20.10;99.90;;;;;;4933350;28;205721;-72
2022/06/29 06:24:01;;;;;;;8.90;2.70;;;20.20;99.90;;;;;;4967668;28;20067;-71
2022/06/29 06:26:27;;;;;;;8.52;2.80;;;20.40;99.90;;;;;;4919674;28;268241;-71
2022/06/29 06:28:53;;;;;;;11.15;2.60;;;20.60;99.90;;;;;;4968876;28;20051;-71
2022/06/29 06:31:19;;;;;;;8.77;2.40;;;20.80;99.90;;;;;;4941215;28;205862;-71
2022/06/29 06:33:45;;;;;;;10.05;2.60;;;21.00;99.90;;;;;;4960525;28;20494;-71
2022/06/29 06:36:11;;;;;;;9.82;2.38;;;21.20;99.90;;;;;;4924589;28;256552;-72
2022/06/29 06:38:37;;;;;;;8.48;2.10;;;21.30;99.90;;;;;;4981158;28;20058;-71
2022/06/29 06:44:00;;;;;;;8.50;2.17;;;21.60;99.90;;;;;;4918346;29;20133;-71
2022/06/29 06:46:28;;;;;;;8.00;2.17;;;21.80;99.60;;;;;;4886046;28;205608;-72
2022/06/29 06:48:54;;;;;;;7.28;1.98;;;21.90;99.60;;;;;;4915076;29;20055;-72
2022/06/29 06:51:22;;;;;;;6.95;2.00;;;22.10;99.00;;;;;;4881002;28;207093;-71
2022/06/29 06:53:48;;;;;;;8.25;2.10;;;22.30;98.20;;;;;;4927489;29;20644;-71
2022/06/29 06:56:15;;;;;;;9.07;1.77;;;22.50;98.00;;;;;;4881695;28;210163;-71
2022/06/29 06:58:42;;;;;;;6.55;1.80;;;22.70;97.80;;;;;;4925144;29;20047;-71
2022/06/29 07:01:10;;;;;;;8.10;1.90;;;22.80;97.40;;;;;;4896101;28;206399;-71
2022/06/29 07:03:36;;;;;;;9.60;1.95;;;23.00;96.90;;;;;;4927525;29;20132;-71
2022/06/29 07:06:04;;;;;;;7.70;1.90;;;23.20;96.90;;;;;;4861578;28;225081;-71
2022/06/29 07:08:31;;;;;;;9.65;2.00;;;23.50;96.50;;;;;;4911049;29;20052;-71
2022/06/29 07:11:01;;;;;;;7.22;1.90;;;23.70;96.40;;;;;;4863715;28;209872;-71
2022/06/29 07:13:28;;;;;;;6.78;1.80;;;23.90;95.20;;;;;;4924368;28;20051;-72
2022/06/29 07:15:54;;;;;;;7.75;1.80;;;24.10;94.90;;;;;;4891000;28;205884;-72
2022/06/29 07:18:21;;;;;;;7.05;1.70;;;24.20;94.60;;;;;;4893314;29;20063;-72
2022/06/29 07:20:48;;;;;;;8.02;1.50;;;24.40;93.50;;;;;;4915258;28;205553;-72
2022/06/29 07:23:14;;;;;;;7.78;1.67;;;24.50;93.10;;;;;;4970585;28;20051;-72
2022/06/29 07:25:40;;;;;;;5.40;1.60;;;24.80;92.50;;;;;;4915020;28;262057;-71
2022/06/29 07:28:07;;;;;;;7.38;1.80;;;25.00;92.30;;;;;;4970754;28;20051;-71
2022/06/29 07:30:33;;;;;;;7.93;1.90;;;25.30;91.50;;;;;;4908550;28;267426;-72
2022/06/29 07:32:59;;;;;;;6.35;1.70;;;25.50;89.70;;;;;;4974530;28;20468;-72
2022/06/29 07:35:26;;;;;;;7.15;1.50;;;25.70;87.10;;;;;;4909949;28;205596;-72
2022/06/29 07:37:53;;;;;;;7.57;2.00;;;25.70;82.60;;;;;;4989909;28;20484;-73
2022/06/29 07:40:22;;;;;;;6.00;1.50;;;25.80;81.50;;;;;;4904183;28;271517;-72
2022/06/29 07:42:48;;;;;;;7.85;1.95;;;26.00;80.50;;;;;;4971231;28;20075;-73
2022/06/29 07:45:15;;;;;;;7.15;1.52;;;26.10;78.30;;;;;;4935664;28;252385;-70
2022/06/29 07:47:41;;;;;;;6.20;1.40;;;26.20;76.70;;;;;;4962284;28;150705;-71
2022/06/29 07:50:10;;;;;;;6.88;1.55;;;26.50;77.40;;;;;;4953606;28;256610;-72
2022/06/29 07:52:37;;;;;;;7.37;1.70;;;26.70;76.70;;;;;;4955458;28;184380;-71
2022/06/29 07:55:03;;;;;;;6.03;1.40;;;27.00;76.80;;;;;;4947311;28;262929;-72
2022/06/29 07:57:29;;;;;;;6.88;1.58;;;27.20;73.50;;;;;;4929470;28;207213;-72
2022/06/29 07:59:55;;;;;;;6.65;1.45;;;27.30;70.70;;;;;;4962752;28;38785;-72
2022/06/29 08:02:21;;;;;;;5.93;1.60;;;27.20;67.70;;;;;;4933799;28;167835;-71
2022/06/29 08:04:47;;;;;;;7.88;1.48;;;27.20;67.10;;;;;;4937630;28;143798;-72
2022/06/29 08:07:14;;;;;;;7.45;1.60;;;27.30;67.60;;;;;;4946200;28;211145;-72
2022/06/29 08:09:40;;;;;;;8.23;1.60;;;27.30;67.50;;;;;;4945205;28;268070;-71
2022/06/29 08:12:08;;;;;;;12.10;1.70;;;27.10;65.50;;;;;;4945119;28;209411;-72
2022/06/29 08:14:34;;;;;;;8.57;1.75;;;27.00;64.90;;;;;;4948066;28;258869;-72
2022/06/29 08:17:01;;;;;;;7.35;1.60;;;27.10;65.50;;;;;;4930925;28;206088;-73
2022/06/29 08:19:27;;;;;;;6.03;1.50;;;27.20;64.70;;;;;;4948018;28;257008;-73
2022/06/29 08:21:53;;;;;;;6.35;1.48;;;27.30;64.30;;;;;;4942870;28;213502;-73
2022/06/29 08:24:19;;;;;;;7.07;1.60;;;27.50;64.70;;;;;;4949627;28;258439;-72
2022/06/29 08:26:45;;;;;;;6.97;1.50;;;27.70;64.60;;;;;;4942517;28;207307;-72
2022/06/29 08:29:11;;;;;;;8.13;1.60;;;27.70;63.60;;;;;;4947279;28;258834;-73
2022/06/29 08:31:37;;;;;;;5.85;1.63;;;27.80;63.80;;;;;;4927045;28;210005;-73
2022/06/29 08:34:07;;;;;;;7.88;1.70;;;27.90;63.80;;;;;;4969273;28;20051;-73
2022/06/29 08:36:33;;;;;;;8.48;1.67;;;27.90;62.40;;;;;;4904554;28;173244;-71
2022/06/29 08:39:01;;;;;;;7.45;1.60;;;27.80;61.40;;;;;;4978036;28;20053;-72
2022/06/29 08:41:30;;;;;;;6.55;1.50;;;27.80;60.90;;;;;;4937243;28;254362;-72
2022/06/29 08:43:59;;;;;;;8.98;1.67;;;27.60;60.90;;;;;;4961670;28;20526;-72
2022/06/29 08:46:25;;;;;;;6.05;1.50;;;27.60;61.30;;;;;;4907107;28;266264;-72
2022/06/29 08:48:51;;;;;;;7.35;1.83;;;27.70;61.10;;;;;;4965744;28;20054;-72
2022/06/29 08:51:19;;;;;;;5.68;1.60;;;27.80;59.70;;;;;;4919267;28;256015;-72
2022/06/29 08:53:45;;;;;;;6.85;1.40;;;27.80;59.70;;;;;;4975895;28;20508;-72
2022/06/29 08:56:13;;;;;;;8.40;1.50;;;27.90;60.30;;;;;;4921256;28;262994;-71
2022/06/29 08:58:40;;;;;;;5.57;1.60;;;28.20;61.40;;;;;;4965763;28;20516;-73
2022/06/29 09:01:08;;;;;;;7.25;1.80;;;28.50;60.10;;;;;;4917736;28;160351;-72
2022/06/29 09:03:34;;;;;;;6.70;1.67;;;28.80;60.30;;;;;;4974685;28;20417;-72
2022/06/29 09:06:03;;;;;;;6.45;1.42;;;28.70;59.00;;;;;;4903427;28;263180;-71
2022/06/29 09:08:31;;;;;;;7.43;1.70;;;28.70;58.60;;;;;;4968826;28;20477;-72
2022/06/29 09:10:57;;;;;;;6.90;1.50;;;28.90;58.50;;;;;;4908821;28;271793;-71
2022/06/29 09:13:24;;;;;;;8.13;1.75;;;29.10;59.20;;;;;;4968574;28;20424;-72
2022/06/29 09:16:00;;;;;;;6.90;1.70;;;29.30;58.90;;;;;;4908584;28;260277;-71
2022/06/29 09:18:31;;;;;;;7.88;1.83;;;29.50;57.00;;;;;;4978538;28;20070;-71
2022/06/29 09:21:02;;;;;;;7.10;1.60;;;29.60;59.00;;;;;;4913665;28;271777;-71
2022/06/29 09:23:30;;;;;;;5.93;1.60;;;29.70;57.50;;;;;;4967518;28;20062;-72
2022/06/29 09:25:56;;;;;;;5.25;1.55;;;29.70;56.10;;;;;;4910053;28;241809;-72
2022/06/29 09:28:23;;;;;;;7.13;1.80;;;29.70;56.50;;;;;;4983488;28;20397;-72
2022/06/29 09:30:52;;;;;;;5.28;1.58;;;29.60;56.00;;;;;;4914606;28;268396;-71
2022/06/29 09:33:31;;;;;;;5.70;1.50;;;29.90;56.20;;;;;;4964919;28;20542;-72
2022/06/29 09:36:14;;;;;;;6.20;1.50;;;30.10;56.50;;;;;;4926937;28;207501;-72
2022/06/29 09:38:41;;;;;;;5.70;1.50;;;30.60;55.60;;;;;;4977096;28;20070;-71
2022/06/29 09:41:13;;;;;;;8.25;1.42;;;31.00;55.50;;;;;;4924889;28;265917;-71
2022/06/29 09:43:47;;;;;;;6.90;1.60;;;31.20;54.00;;;;;;4980981;28;20058;-70
2022/06/29 09:46:15;;;;;;;7.03;1.50;;;31.50;53.20;;;;;;4915827;28;262958;-70
2022/06/29 09:48:43;;;;;;;7.60;1.60;;;31.70;54.00;;;;;;4958860;28;20067;-69
2022/06/29 09:51:30;;;;;;;4.75;1.35;;;31.90;52.20;;;;;;4924901;28;253636;-70
2022/06/29 09:54:03;;;;;;;6.78;1.58;;;32.00;52.60;;;;;;4968590;28;20513;-71
2022/06/29 09:56:31;;;;;;;7.00;1.58;;;32.50;52.10;;;;;;4927600;28;210864;-70
2022/06/29 09:58:59;;;;;;;6.03;1.40;;;32.60;51.30;;;;;;4968355;28;20055;-71
2022/06/29 10:04:14;;;;;;;5.18;1.20;;;32.70;50.90;;;;;;4934951;28;261839;-70
2022/06/29 10:06:41;;;;;;;7.05;1.50;;;33.10;48.10;;;;;;4938011;28;207117;-70
2022/06/29 10:09:07;;;;;;;6.82;1.50;;;33.30;48.50;;;;;;4946956;28;258508;-70
2022/06/29 10:15:34;;;;;;;6.47;1.40;;;33.80;47.30;;;;;;4947294;28;270618;-70
2022/06/29 10:18:27;;;;;;;5.38;1.50;;;33.80;45.70;;;;;;4903067;28;204824;-68
2022/06/29 10:20:54;;;;;;;6.95;1.45;;;33.40;45.90;;;;;;4898693;28;208689;-71
2022/06/29 10:23:42;;;;;;;4.80;1.38;;;33.30;47.50;;;;;;4924918;28;20066;-72
2022/06/29 10:26:35;;;;;;;5.43;1.50;;;33.30;46.00;;;;;;4905424;28;206836;-72
2022/06/29 10:29:10;;;;;;;6.65;1.63;;;33.10;44.30;;;;;;4945636;28;20067;-71
2022/06/29 10:31:51;;;;;;;6.20;1.50;;;33.00;46.10;;;;;;4869557;28;206607;-72
2022/06/29 10:37:07;;;;;;;5.22;1.58;;;33.10;45.60;;;;;;4899560;28;207256;-70
2022/06/29 10:39:45;;;;;;;7.03;1.65;;;33.30;47.20;;;;;;4928400;28;164168;-69
2022/06/29 10:45:32;;;;;;;7.00;1.50;;;34.30;43.60;;;;;;4942875;28;96331;-70
2022/06/29 10:47:58;;;;;;;6.88;1.40;;;34.40;45.00;;;;;;4887812;29;206563;-71
2022/06/29 10:50:28;;;;;;;6.38;1.40;;;34.40;43.60;;;;;;4903479;28;211857;-70
2022/06/29 10:53:03;;;;;;;5.35;1.33;;;34.30;43.50;;;;;;4931591;29;20437;-70
2022/06/29 10:55:31;;;;;;;5.85;1.30;;;34.50;42.90;;;;;;4902377;28;271036;-70
2022/06/29 10:57:58;;;;;;;5.07;1.30;;;34.60;43.50;;;;;;4986377;28;20053;-70
2022/06/29 11:00:28;;;;;;;5.00;1.33;;;34.90;44.00;;;;;;4911719;28;274806;-70
2022/06/29 11:02:55;;;;;;;5.47;1.20;;;35.20;43.60;;;;;;4976827;28;20063;-69
2022/06/29 11:05:22;;;;;;;9.30;1.35;;;35.60;44.30;;;;;;4895535;28;214581;-70
2022/06/29 11:13:27;;;;;;;5.63;1.30;;;36.10;39.50;;;;;;4967340;28;20059;-70
2022/06/29 11:15:55;;;;;;;6.88;1.50;;;36.10;40.00;;;;;;4909575;28;253997;-69
2022/06/29 11:18:23;;;;;;;4.60;1.08;;;36.30;39.90;;;;;;4983348;28;20065;-70
2022/06/29 11:20:51;;;;;;;6.63;1.40;;;36.50;40.60;;;;;;4941393;28;206720;-70
2022/06/29 11:23:27;;;;;;;4.53;1.20;;;36.90;41.40;;;;;;4977681;28;20150;-70
2022/06/29 11:25:56;;;;;;;3.92;1.00;;;37.30;40.00;;;;;;4932421;28;207816;-69
2022/06/29 11:28:27;;;;;;;4.82;1.17;;;37.40;38.70;;;;;;4983597;28;20626;-70
2022/06/29 11:31:12;;;;;;;6.43;1.23;;;37.50;39.20;;;;;;4919165;28;141363;-69
2022/06/29 11:33:48;;;;;;;4.28;0.90;;;37.70;38.80;;;;;;4978348;28;20055;-70
2022/06/29 11:36:17;;;;;;;5.15;1.10;;;37.50;35.20;;;;;;4910604;28;230943;-71
2022/06/29 11:38:46;;;;;;;4.63;1.20;;;37.20;35.70;;;;;;4979033;28;20086;-69
2022/06/29 11:41:13;;;;;;;4.43;1.10;;;37.20;37.00;;;;;;4914719;28;255822;-70
2022/06/29 11:43:40;;;;;;;4.38;1.10;;;37.30;36.60;;;;;;4969397;28;20057;-70
2022/06/29 11:46:21;;;;;;;4.90;1.20;;;37.60;36.40;;;;;;4918758;28;264070;-70
2022/06/29 11:51:46;;;;;;;;;;;37.90;35.40;;;;;;4912823;28;206273;-70
2022/06/29 11:54:12;;;;;;;6.90;1.30;;;37.80;37.50;;;;;;4959436;28;261363;-69
2022/06/29 11:56:42;;;;;;;5.45;1.15;;;37.50;36.60;;;;;;4933167;28;133740;-69
2022/06/29 11:59:08;;;;;;;7.18;1.23;;;37.00;36.50;;;;;;4971804;28;271518;-69
2022/06/29 12:01:34;;;;;;;6.30;1.38;;;36.50;36.80;;;;;;4946464;28;210780;-69
2022/06/29 12:04:02;;;;;;;8.38;1.40;;;36.00;37.60;;;;;;4971670;28;20051;-69
2022/06/29 12:06:37;;;;;;;8.07;1.50;;;35.90;39.80;;;;;;4889708;28;206101;-70
2022/06/29 12:09:04;;;;;;;5.45;1.40;;;36.20;39.80;;;;;;4963696;28;20073;-69
2022/06/29 12:11:31;;;;;;;5.88;1.50;;;36.50;39.60;;;;;;4909326;28;206203;-69
2022/06/29 12:13:57;;;;;;;6.57;1.60;;;37.00;39.40;;;;;;4966313;28;20476;-69
2022/06/29 12:16:23;;;;;;;5.38;1.60;;;37.40;39.60;;;;;;4922854;28;251930;-69
2022/06/29 12:18:49;;;;;;;4.90;1.33;;;37.60;38.40;;;;;;4974524;28;20379;-70
2022/06/29 12:21:15;;;;;;;5.75;1.40;;;37.60;38.70;;;;;;4915634;28;210277;-70
2022/06/29 12:23:41;;;;;;;8.02;1.50;;;37.30;38.60;;;;;;4980285;28;20388;-69
2022/06/29 12:26:08;;;;;;;6.68;1.58;;;37.30;39.60;;;;;;4925940;28;267393;-69
2022/06/29 12:28:35;;;;;;;5.80;1.52;;;37.30;38.50;;;;;;4976250;28;20050;-69
2022/06/29 12:31:01;;;;;;;6.05;1.60;;;37.20;39.70;;;;;;4914184;28;265330;-69
2022/06/29 12:33:28;;;;;;;7.38;1.75;;;37.40;39.50;;;;;;4979266;28;20409;-69
2022/06/29 12:35:54;;;;;;;6.65;1.80;;;37.40;39.70;;;;;;4926073;28;210047;-69
2022/06/29 12:38:21;;;;;;;6.50;1.48;;;37.00;39.40;;;;;;4962716;28;20425;-69
2022/06/29 12:40:47;;;;;;;6.15;1.77;;;36.70;39.80;;;;;;4915547;28;250687;-68
2022/06/29 12:43:13;;;;;;;7.20;2.03;;;37.00;40.60;;;;;;4980009;28;20393;-69
2022/06/29 12:45:39;;;;;;;6.10;1.70;;;37.50;39.30;;;;;;4912629;28;260875;-69
2022/06/29 12:48:06;;;;;;;7.03;1.83;;;37.70;39.70;;;;;;4956520;28;20055;-69
2022/06/29 12:50:32;;;;;;;8.48;1.88;;;38.00;39.50;;;;;;4913993;28;271616;-69
2022/06/29 12:52:58;;;;;;;6.00;1.80;;;38.00;38.50;;;;;;4974275;28;20059;-70
2022/06/29 12:55:24;;;;;;;8.43;1.95;;;38.10;38.70;;;;;;4911582;28;269684;-69
2022/06/29 12:57:50;;;;;;;7.63;1.75;;;38.00;38.50;;;;;;4984455;28;20051;-70
2022/06/29 13:00:17;;;;;;;5.70;1.60;;;37.80;38.90;;;;;;4948528;28;150529;-69
2022/06/29 13:02:43;;;;;;;6.28;1.63;;;37.90;39.30;;;;;;4969149;28;209097;-70
2022/06/29 13:05:09;;;;;;;8.00;1.88;;;38.00;38.90;;;;;;4938916;28;254224;-69
2022/06/29 13:07:37;;;;;;;7.20;1.90;;;37.90;39.00;;;;;;4928167;28;206510;-69
2022/06/29 13:10:07;;;;;;;8.20;1.90;;;37.80;39.70;;;;;;4965637;28;144822;-70